sensor_id;sensor_type;location;lat;lon;timestamp;pressure;altitude;pressure_sealevel;temperature;humidity
42945;BME280;28584;42.636;23.294;2022-07-29T00:00:59;163180.53;;;17.35;100.00
42945;BME280;28584;42.636;23.294;2022-07-29T00:03:24;163179.16;;;17.34;100.00
42945;BME280;28584;42.636;23.294;2022-07-29T00:05:50;163188.53;;;17.38;100.00
42945;BME280;28584;42.636;23.294;2022-07-29T00:08:17;163185.88;;;17.37;100.00
42945;BME280;28584;42.636;23.294;2022-07-29T00:10:43;163180.53;;;17.35;100.00
42945;BME280;28584;42.636;23.294;2022-07-29T00:13:08;163129.47;;;17.16;100.00
42945;BME280;28584;42.636;23.294;2022-07-29T00:15:34;163101.25;;;17.05;100.00
42945;BME280;28584;42.636;23.294;2022-07-29T00:17:59;163069.06;;;16.93;100.00
42945;BME280;28584;42.636;23.294;2022-07-29T00:20:25;157547.13;;;16.80;100.00
42945;BME280;28584;42.636;23.294;2022-07-29T00:22:50;148999.91;;;16.70;100.00
42945;BME280;28584;42.636;23.294;2022-07-29T00:25:15;140125.81;;;16.68;100.00
42945;BME280;28584;42.636;23.294;2022-07-29T00:27:41;134383.50;;;16.58;100.00
42945;BME280;28584;42.636;23.294;2022-07-29T00:30:07;127764.34;;;16.52;100.00
42945;BME280;28584;42.636;23.294;2022-07-29T00:32:33;121430.25;;;16.47;100.00
42945;BME280;28584;42.636;23.294;2022-07-29T00:34:59;115278.19;;;16.28;100.00
42945;BME280;28584;42.636;23.294;2022-07-29T00:37:43;107946.91;;;16.13;100.00
42945;BME280;28584;42.636;23.294;2022-07-29T00:40:09;106343.28;;;16.18;100.00
42945;BME280;28584;42.636;23.294;2022-07-29T00:42:45;105006.75;;;16.06;100.00
42945;BME280;28584;42.636;23.294;2022-07-29T00:45:11;105024.09;;;16.14;100.00
42945;BME280;28584;42.636;23.294;2022-07-29T00:47:37;105291.47;;;16.20;100.00
42945;BME280;28584;42.636;23.294;2022-07-29T00:50:04;107399.44;;;16.21;100.00
42945;BME280;28584;42.636;23.294;2022-07-29T00:52:30;108106.00;;;16.18;100.00
42945;BME280;28584;42.636;23.294;2022-07-29T00:54:56;108537.41;;;16.21;100.00
42945;BME280;28584;42.636;23.294;2022-07-29T00:57:22;105872.72;;;16.14;100.00
42945;BME280;28584;42.636;23.294;2022-07-29T00:59:47;102767.50;;;16.15;100.00
42945;BME280;28584;42.636;23.294;2022-07-29T01:02:12;101062.88;;;16.09;100.00
42945;BME280;28584;42.636;23.294;2022-07-29T01:04:38;99250.81;;;16.08;100.00
42945;BME280;28584;42.636;23.294;2022-07-29T01:07:04;97542.44;;;16.01;100.00
42945;BME280;28584;42.636;23.294;2022-07-29T01:09:34;98914.22;;;16.08;100.00
42945;BME280;28584;42.636;23.294;2022-07-29T01:12:02;101698.19;;;16.13;100.00
42945;BME280;28584;42.636;23.294;2022-07-29T01:14:29;103994.56;;;16.18;100.00
42945;BME280;28584;42.636;23.294;2022-07-29T01:17:00;102331.97;;;16.15;100.00
42945;BME280;28584;42.636;23.294;2022-07-29T01:31:05;89218.34;;;16.11;100.00
42945;BME280;28584;42.636;23.294;2022-07-29T01:33:34;88501.09;;;16.02;100.00
42945;BME280;28584;42.636;23.294;2022-07-29T01:36:27;86414.59;;;15.91;100.00
42945;BME280;28584;42.636;23.294;2022-07-29T01:39:19;84218.84;;;15.92;100.00
42945;BME280;28584;42.636;23.294;2022-07-29T01:41:57;82825.50;;;15.85;100.00
42945;BME280;28584;42.636;23.294;2022-07-29T01:44:32;82167.72;;;15.78;100.00
42945;BME280;28584;42.636;23.294;2022-07-29T01:47:04;81203.22;;;15.79;100.00
42945;BME280;28584;42.636;23.294;2022-07-29T01:49:35;80341.50;;;15.74;100.00
42945;BME280;28584;42.636;23.294;2022-07-29T01:52:05;79950.50;;;15.77;100.00
42945;BME280;28584;42.636;23.294;2022-07-29T01:54:40;79964.31;;;15.86;100.00
42945;BME280;28584;42.636;23.294;2022-07-29T01:57:13;80424.59;;;15.94;100.00
42945;BME280;28584;42.636;23.294;2022-07-29T01:59:40;80467.06;;;15.95;100.00
42945;BME280;28584;42.636;23.294;2022-07-29T02:02:08;80160.44;;;15.95;100.00
42945;BME280;28584;42.636;23.294;2022-07-29T02:04:36;79805.28;;;15.94;100.00
42945;BME280;28584;42.636;23.294;2022-07-29T02:07:05;79853.78;;;15.87;100.00
42945;BME280;28584;42.636;23.294;2022-07-29T02:09:33;80006.50;;;15.80;100.00
42945;BME280;28584;42.636;23.294;2022-07-29T02:12:02;79903.97;;;15.86;100.00
42945;BME280;28584;42.636;23.294;2022-07-29T02:14:33;79440.16;;;15.90;100.00
42945;BME280;28584;42.636;23.294;2022-07-29T02:17:00;79073.97;;;15.91;100.00
42945;BME280;28584;42.636;23.294;2022-07-29T02:19:27;78472.44;;;15.94;100.00
42945;BME280;28584;42.636;23.294;2022-07-29T02:21:56;78017.13;;;15.96;100.00
42945;BME280;28584;42.636;23.294;2022-07-29T02:24:24;77725.22;;;16.02;100.00
42945;BME280;28584;42.636;23.294;2022-07-29T02:26:51;77607.53;;;16.06;100.00
42945;BME280;28584;42.636;23.294;2022-07-29T02:29:23;77354.66;;;16.06;100.00
42945;BME280;28584;42.636;23.294;2022-07-29T02:31:51;77217.34;;;16.08;100.00
42945;BME280;28584;42.636;23.294;2022-07-29T02:34:19;77201.41;;;16.21;100.00
42945;BME280;28584;42.636;23.294;2022-07-29T02:36:46;77368.22;;;16.25;100.00
42945;BME280;28584;42.636;23.294;2022-07-29T02:39:13;77358.03;;;16.30;100.00
42945;BME280;28584;42.636;23.294;2022-07-29T02:41:43;77364.78;;;16.31;100.00
42945;BME280;28584;42.636;23.294;2022-07-29T02:44:14;77383.97;;;16.31;100.00
42945;BME280;28584;42.636;23.294;2022-07-29T02:46:45;77586.72;;;16.33;100.00
42945;BME280;28584;42.636;23.294;2022-07-29T02:49:18;78046.31;;;16.32;100.00
42945;BME280;28584;42.636;23.294;2022-07-29T02:51:58;78507.72;;;16.41;100.00
42945;BME280;28584;42.636;23.294;2022-07-29T02:54:53;79498.16;;;16.46;100.00
42945;BME280;28584;42.636;23.294;2022-07-29T02:57:23;80686.72;;;16.50;100.00
42945;BME280;28584;42.636;23.294;2022-07-29T02:59:57;81791.31;;;16.37;100.00
42945;BME280;28584;42.636;23.294;2022-07-29T03:02:25;81924.50;;;16.38;100.00
42945;BME280;28584;42.636;23.294;2022-07-29T03:04:52;81721.94;;;16.22;100.00
42945;BME280;28584;42.636;23.294;2022-07-29T03:07:20;80818.94;;;16.18;100.00
42945;BME280;28584;42.636;23.294;2022-07-29T03:09:46;79971.59;;;16.08;100.00
42945;BME280;28584;42.636;23.294;2022-07-29T03:12:12;79215.22;;;16.07;100.00
42945;BME280;28584;42.636;23.294;2022-07-29T03:14:38;78707.06;;;16.00;100.00
42945;BME280;28584;42.636;23.294;2022-07-29T03:17:05;78168.94;;;15.93;100.00
42945;BME280;28584;42.636;23.294;2022-07-29T03:19:30;77811.28;;;15.85;100.00
42945;BME280;28584;42.636;23.294;2022-07-29T03:21:57;77345.34;;;15.85;100.00
42945;BME280;28584;42.636;23.294;2022-07-29T03:24:35;76933.28;;;15.82;100.00
42945;BME280;28584;42.636;23.294;2022-07-29T03:27:02;76438.81;;;15.81;100.00
42945;BME280;28584;42.636;23.294;2022-07-29T03:29:29;75898.88;;;15.83;100.00
42945;BME280;28584;42.636;23.294;2022-07-29T03:31:55;75507.81;;;15.88;100.00
42945;BME280;28584;42.636;23.294;2022-07-29T03:34:21;75191.28;;;15.94;100.00
42945;BME280;28584;42.636;23.294;2022-07-29T03:36:47;75059.22;;;15.93;100.00
42945;BME280;28584;42.636;23.294;2022-07-29T03:39:17;75053.13;;;15.93;100.00
42945;BME280;28584;42.636;23.294;2022-07-29T03:41:44;75273.56;;;16.07;100.00
42945;BME280;28584;42.636;23.294;2022-07-29T03:44:12;75528.75;;;16.14;100.00
42945;BME280;28584;42.636;23.294;2022-07-29T03:46:39;75787.59;;;16.15;100.00
42945;BME280;28584;42.636;23.294;2022-07-29T03:49:06;75837.31;;;16.22;100.00
42945;BME280;28584;42.636;23.294;2022-07-29T03:51:33;76075.81;;;16.22;100.00
42945;BME280;28584;42.636;23.294;2022-07-29T03:53:59;76255.94;;;16.28;100.00
42945;BME280;28584;42.636;23.294;2022-07-29T03:56:25;76424.69;;;16.27;100.00
42945;BME280;28584;42.636;23.294;2022-07-29T03:58:53;76422.03;;;16.43;100.00
42945;BME280;28584;42.636;23.294;2022-07-29T04:01:19;76369.13;;;16.65;100.00
42945;BME280;28584;42.636;23.294;2022-07-29T04:03:45;76708.94;;;16.73;100.00
42945;BME280;28584;42.636;23.294;2022-07-29T04:06:12;77103.44;;;16.90;100.00
42945;BME280;28584;42.636;23.294;2022-07-29T04:08:37;77667.84;;;17.31;100.00
42945;BME280;28584;42.636;23.294;2022-07-29T04:11:04;81623.81;;;17.66;100.00
42945;BME280;28584;42.636;23.294;2022-07-29T04:13:30;87617.25;;;18.07;100.00
42945;BME280;28584;42.636;23.294;2022-07-29T04:15:56;107499.69;;;18.24;100.00
42945;BME280;28584;42.636;23.294;2022-07-29T04:18:22;129265.25;;;18.63;100.00
42945;BME280;28584;42.636;23.294;2022-07-29T04:20:47;162990.63;;;19.07;100.00
42945;BME280;28584;42.636;23.294;2022-07-29T04:23:13;163744.97;;;19.45;100.00
42945;BME280;28584;42.636;23.294;2022-07-29T04:25:39;163872.72;;;19.93;100.00
42945;BME280;28584;42.636;23.294;2022-07-29T04:28:05;163999.25;;;20.40;100.00
42945;BME280;28584;42.636;23.294;2022-07-29T04:30:32;164137.84;;;20.91;100.00
42945;BME280;28584;42.636;23.294;2022-07-29T04:32:59;164273.91;;;21.42;100.00
42945;BME280;28584;42.636;23.294;2022-07-29T04:35:26;164373.56;;;21.79;100.00
42945;BME280;28584;42.636;23.294;2022-07-29T04:37:51;164442.28;;;22.05;100.00
42945;BME280;28584;42.636;23.294;2022-07-29T04:40:17;164502.88;;;22.27;100.00
42945;BME280;28584;42.636;23.294;2022-07-29T04:42:42;164587.84;;;22.59;100.00
42945;BME280;28584;42.636;23.294;2022-07-29T04:45:08;164462.50;;;22.12;100.00
42945;BME280;28584;42.636;23.294;2022-07-29T04:47:34;164364.16;;;21.76;100.00
42945;BME280;28584;42.636;23.294;2022-07-29T04:49:59;164330.47;;;21.63;100.00
42945;BME280;28584;42.636;23.294;2022-07-29T04:52:25;164291.41;;;21.48;100.00
42945;BME280;28584;42.636;23.294;2022-07-29T04:54:50;164271.19;;;21.41;100.00
42945;BME280;28584;42.636;23.294;2022-07-29T04:57:15;164256.38;;;21.35;100.00
42945;BME280;28584;42.636;23.294;2022-07-29T04:59:41;164489.44;;;22.22;100.00
42945;BME280;28584;42.636;23.294;2022-07-29T05:02:06;164248.28;;;21.32;100.00
42945;BME280;28584;42.636;23.294;2022-07-29T05:04:32;164434.19;;;22.02;100.00
42945;BME280;28584;42.636;23.294;2022-07-29T05:06:57;164585.09;;;22.58;100.00
42945;BME280;28584;42.636;23.294;2022-07-29T05:09:22;164663.31;;;22.87;100.00
42945;BME280;28584;42.636;23.294;2022-07-29T05:11:48;164517.69;;;22.33;100.00
42945;BME280;28584;42.636;23.294;2022-07-29T05:14:13;164771.16;;;23.27;100.00
42945;BME280;28584;42.636;23.294;2022-07-29T05:16:39;164891.19;;;23.71;100.00
42945;BME280;28584;42.636;23.294;2022-07-29T05:19:08;164965.38;;;23.99;100.00
42945;BME280;28584;42.636;23.294;2022-07-29T05:21:34;165117.81;;;24.56;100.00
42945;BME280;28584;42.636;23.294;2022-07-29T05:23:59;165120.50;;;24.57;100.00
42945;BME280;28584;42.636;23.294;2022-07-29T05:26:25;164884.41;;;23.69;100.00
42945;BME280;28584;42.636;23.294;2022-07-29T05:28:50;164938.34;;;23.89;100.00
42945;BME280;28584;42.636;23.294;2022-07-29T05:31:15;164854.75;;;23.58;100.00
42945;BME280;28584;42.636;23.294;2022-07-29T05:33:41;164955.97;;;23.95;100.00
42945;BME280;28584;42.636;23.294;2022-07-29T05:36:07;165169.09;;;24.75;100.00
42945;BME280;28584;42.636;23.294;2022-07-29T05:38:33;165264.94;;;25.10;100.00
42945;BME280;28584;42.636;23.294;2022-07-29T05:40:59;165286.56;;;25.18;99.50
42945;BME280;28584;42.636;23.294;2022-07-29T05:43:27;165397.25;;;25.59;93.77
42945;BME280;28584;42.636;23.294;2022-07-29T05:45:52;165472.91;;;25.87;93.84
42945;BME280;28584;42.636;23.294;2022-07-29T05:48:18;165467.50;;;25.85;87.13
42945;BME280;28584;42.636;23.294;2022-07-29T05:50:43;165578.28;;;26.26;82.85
42945;BME280;28584;42.636;23.294;2022-07-29T05:53:09;165464.81;;;25.84;84.11
42945;BME280;28584;42.636;23.294;2022-07-29T05:55:34;165551.25;;;26.16;81.32
42945;BME280;28584;42.636;23.294;2022-07-29T05:57:59;165598.50;;;26.34;77.88
42945;BME280;28584;42.636;23.294;2022-07-29T06:00:25;165579.59;;;26.27;80.85
42945;BME280;28584;42.636;23.294;2022-07-29T06:02:50;165539.09;;;26.12;81.67
42945;BME280;28584;42.636;23.294;2022-07-29T06:05:16;165558.00;;;26.19;79.78
42945;BME280;28584;42.636;23.294;2022-07-29T06:07:42;165576.91;;;26.26;81.46
42945;BME280;28584;42.636;23.294;2022-07-29T06:10:07;165710.69;;;26.76;80.97
42945;BME280;28584;42.636;23.294;2022-07-29T06:12:33;165751.22;;;26.91;76.61
42945;BME280;28584;42.636;23.294;2022-07-29T06:14:58;165862.09;;;27.32;75.07
42945;BME280;28584;42.636;23.294;2022-07-29T06:17:24;165913.47;;;27.51;66.25
42945;BME280;28584;42.636;23.294;2022-07-29T06:19:50;165891.81;;;27.43;65.29
42945;BME280;28584;42.636;23.294;2022-07-29T06:22:16;165975.59;;;27.74;64.41
42945;BME280;28584;42.636;23.294;2022-07-29T06:24:42;165985.09;;;27.77;64.49
42945;BME280;28584;42.636;23.294;2022-07-29T06:27:10;166054.09;;;28.03;58.39
42945;BME280;28584;42.636;23.294;2022-07-29T06:29:35;166029.75;;;27.94;59.93
42945;BME280;28584;42.636;23.294;2022-07-29T06:32:01;166068.97;;;28.08;59.57
42945;BME280;28584;42.636;23.294;2022-07-29T06:34:27;166083.84;;;28.14;58.99
42945;BME280;28584;42.636;23.294;2022-07-29T06:36:53;166041.91;;;27.98;60.53
42945;BME280;28584;42.636;23.294;2022-07-29T06:39:18;166064.91;;;28.07;59.34
42945;BME280;28584;42.636;23.294;2022-07-29T06:41:47;166083.84;;;28.14;57.63
42945;BME280;28584;42.636;23.294;2022-07-29T06:44:14;166089.22;;;28.16;59.55
42945;BME280;28584;42.636;23.294;2022-07-29T06:46:39;166101.38;;;28.20;58.76
42945;BME280;28584;42.636;23.294;2022-07-29T06:49:05;166109.50;;;28.23;58.67
42945;BME280;28584;42.636;23.294;2022-07-29T06:51:30;166070.28;;;28.09;59.04
42945;BME280;28584;42.636;23.294;2022-07-29T06:53:56;166148.75;;;28.38;58.62
42945;BME280;28584;42.636;23.294;2022-07-29T06:56:23;166148.75;;;28.38;55.99
42945;BME280;28584;42.636;23.294;2022-07-29T06:58:48;166228.59;;;28.67;54.95
42945;BME280;28584;42.636;23.294;2022-07-29T07:01:14;166326.00;;;29.04;55.60
42945;BME280;28584;42.636;23.294;2022-07-29T07:03:39;166286.75;;;28.89;53.70
42945;BME280;28584;42.636;23.294;2022-07-29T07:06:04;166259.72;;;28.79;55.25
42945;BME280;28584;42.636;23.294;2022-07-29T07:08:30;166127.06;;;28.30;55.98
42945;BME280;28584;42.636;23.294;2022-07-29T07:10:55;166202.91;;;28.58;57.58
42945;BME280;28584;42.636;23.294;2022-07-29T07:13:22;166151.44;;;28.39;56.35
42945;BME280;28584;42.636;23.294;2022-07-29T07:15:48;166027.06;;;27.93;62.23
42945;BME280;28584;42.636;23.294;2022-07-29T07:18:15;166051.34;;;28.02;62.22
42945;BME280;28584;42.636;23.294;2022-07-29T07:20:41;166029.75;;;27.94;63.41
42945;BME280;28584;42.636;23.294;2022-07-29T07:23:06;166102.75;;;28.21;62.18
42945;BME280;28584;42.636;23.294;2022-07-29T07:25:32;166221.84;;;28.65;60.06
42945;BME280;28584;42.636;23.294;2022-07-29T07:27:57;166140.63;;;28.35;60.75
42945;BME280;28584;42.636;23.294;2022-07-29T07:30:23;166201.53;;;28.57;58.25
42945;BME280;28584;42.636;23.294;2022-07-29T07:32:48;166219.09;;;28.64;57.88
42945;BME280;28584;42.636;23.294;2022-07-29T07:35:14;166300.25;;;28.94;54.89
42945;BME280;28584;42.636;23.294;2022-07-29T07:37:39;166367.94;;;29.19;55.25
42945;BME280;28584;42.636;23.294;2022-07-29T07:40:06;166403.13;;;29.32;54.76
42945;BME280;28584;42.636;23.294;2022-07-29T07:42:32;166424.78;;;29.40;52.49
42945;BME280;28584;42.636;23.294;2022-07-29T07:44:58;166354.44;;;29.14;53.67
42945;BME280;28584;42.636;23.294;2022-07-29T07:47:23;166395.00;;;29.29;52.93
42945;BME280;28584;42.636;23.294;2022-07-29T07:49:50;166565.56;;;29.92;52.68
42945;BME280;28584;42.636;23.294;2022-07-29T07:52:17;166614.28;;;30.10;50.75
42945;BME280;28584;42.636;23.294;2022-07-29T07:54:43;166554.75;;;29.88;50.22
42945;BME280;28584;42.636;23.294;2022-07-29T07:57:10;166614.28;;;30.10;49.78
42945;BME280;28584;42.636;23.294;2022-07-29T07:59:36;166724.03;;;30.51;49.20
42945;BME280;28584;42.636;23.294;2022-07-29T08:02:01;166701.00;;;30.42;48.57
42945;BME280;28584;42.636;23.294;2022-07-29T08:04:27;166698.28;;;30.41;48.18
42945;BME280;28584;42.636;23.294;2022-07-29T08:06:53;166806.66;;;30.81;46.87
42945;BME280;28584;42.636;23.294;2022-07-29T08:09:20;166940.81;;;31.31;46.63
42945;BME280;28584;42.636;23.294;2022-07-29T08:11:46;166917.72;;;31.22;45.05
42945;BME280;28584;42.636;23.294;2022-07-29T08:14:11;166871.66;;;31.05;44.47
42945;BME280;28584;42.636;23.294;2022-07-29T08:16:36;166971.97;;;31.43;44.49
42945;BME280;28584;42.636;23.294;2022-07-29T08:19:02;166921.78;;;31.24;43.45
42945;BME280;28584;42.636;23.294;2022-07-29T08:21:28;166996.31;;;31.52;43.31
42945;BME280;28584;42.636;23.294;2022-07-29T08:23:53;166966.53;;;31.41;43.46
42945;BME280;28584;42.636;23.294;2022-07-29T08:26:39;166916.34;;;31.22;44.13
42945;BME280;28584;42.636;23.294;2022-07-29T08:29:05;167004.47;;;31.55;44.33
42945;BME280;28584;42.636;23.294;2022-07-29T08:31:30;166963.84;;;31.40;43.93
42945;BME280;28584;42.636;23.294;2022-07-29T08:33:55;166713.22;;;30.47;45.56
42945;BME280;28584;42.636;23.294;2022-07-29T08:36:21;166568.31;;;29.93;46.68
42945;BME280;28584;42.636;23.294;2022-07-29T08:38:46;166512.78;;;29.73;46.20
42945;BME280;28584;42.636;23.294;2022-07-29T08:41:13;166653.59;;;30.25;46.73
42945;BME280;28584;42.636;23.294;2022-07-29T08:43:39;166790.41;;;30.75;44.19
42945;BME280;28584;42.636;23.294;2022-07-29T08:46:06;167043.75;;;31.69;43.20
42945;BME280;28584;42.636;23.294;2022-07-29T08:48:31;167032.94;;;31.65;42.68
42945;BME280;28584;42.636;23.294;2022-07-29T08:50:58;167031.56;;;31.65;42.09
42945;BME280;28584;42.636;23.294;2022-07-29T08:53:26;166946.19;;;31.33;42.72
42945;BME280;28584;42.636;23.294;2022-07-29T08:55:52;166549.38;;;29.86;44.67
42945;BME280;28584;42.636;23.294;2022-07-29T08:58:18;166302.97;;;28.95;47.12
42945;BME280;28584;42.636;23.294;2022-07-29T09:00:55;166181.22;;;28.50;48.64
42945;BME280;28584;42.636;23.294;2022-07-29T09:03:24;166073.03;;;28.10;49.23
42945;BME280;28584;42.636;23.294;2022-07-29T09:05:51;166010.81;;;27.87;51.27
42945;BME280;28584;42.636;23.294;2022-07-29T09:08:17;165899.91;;;27.46;51.35
42945;BME280;28584;42.636;23.294;2022-07-29T09:10:44;165898.59;;;27.45;53.50
42945;BME280;28584;42.636;23.294;2022-07-29T09:13:10;165963.44;;;27.69;53.23
42945;BME280;28584;42.636;23.294;2022-07-29T09:15:36;166238.03;;;28.71;50.72
42945;BME280;28584;42.636;23.294;2022-07-29T09:18:01;166571.00;;;29.94;47.34
42945;BME280;28584;42.636;23.294;2022-07-29T09:20:27;166890.63;;;31.12;44.68
42945;BME280;28584;42.636;23.294;2022-07-29T09:23:13;167154.94;;;32.10;43.20
42945;BME280;28584;42.636;23.294;2022-07-29T09:25:40;167319.00;;;32.71;41.75
42945;BME280;28584;42.636;23.294;2022-07-29T09:28:13;167468.19;;;33.26;38.49
42945;BME280;28584;42.636;23.294;2022-07-29T09:30:56;167723.28;;;34.20;37.92
42945;BME280;28584;42.636;23.294;2022-07-29T09:33:30;167803.38;;;34.50;36.50
42945;BME280;28584;42.636;23.294;2022-07-29T09:36:07;167765.38;;;34.36;36.92
42945;BME280;28584;42.636;23.294;2022-07-29T09:38:34;167955.41;;;35.06;36.49
42945;BME280;28584;42.636;23.294;2022-07-29T09:41:04;167613.34;;;33.80;37.32
42945;BME280;28584;42.636;23.294;2022-07-29T09:43:30;167140.03;;;32.05;40.00
42945;BME280;28584;42.636;23.294;2022-07-29T09:45:56;167093.97;;;31.88;41.24
42945;BME280;28584;42.636;23.294;2022-07-29T09:48:34;166803.97;;;30.80;42.95
42945;BME280;28584;42.636;23.294;2022-07-29T09:50:59;166679.31;;;30.34;44.54
42945;BME280;28584;42.636;23.294;2022-07-29T09:53:37;166422.09;;;29.39;47.73
42945;BME280;28584;42.636;23.294;2022-07-29T09:56:05;166338.19;;;29.08;48.73
42945;BME280;28584;42.636;23.294;2022-07-29T09:58:31;166315.13;;;28.99;50.04
42945;BME280;28584;42.636;23.294;2022-07-29T10:01:01;166321.94;;;29.02;50.19
42945;BME280;28584;42.636;23.294;2022-07-29T10:03:26;166382.81;;;29.25;51.92
42945;BME280;28584;42.636;23.294;2022-07-29T10:06:05;166313.78;;;28.99;52.03
42945;BME280;28584;42.636;23.294;2022-07-29T10:08:31;166349.00;;;29.12;52.36
42945;BME280;28584;42.636;23.294;2022-07-29T10:11:09;166392.31;;;29.28;50.41
42945;BME280;28584;42.636;23.294;2022-07-29T10:13:35;166400.44;;;29.31;50.74
42945;BME280;28584;42.636;23.294;2022-07-29T10:16:00;166701.00;;;30.42;47.76
42945;BME280;28584;42.636;23.294;2022-07-29T10:18:26;166915.03;;;31.21;46.03
42945;BME280;28584;42.636;23.294;2022-07-29T10:20:52;167102.09;;;31.91;43.42
42945;BME280;28584;42.636;23.294;2022-07-29T10:23:18;167301.34;;;32.64;42.89
42945;BME280;28584;42.636;23.294;2022-07-29T10:25:45;167437.00;;;33.14;42.17
42945;BME280;28584;42.636;23.294;2022-07-29T10:28:11;167592.97;;;33.72;41.19
42945;BME280;28584;42.636;23.294;2022-07-29T10:30:37;167659.47;;;33.97;40.42
42945;BME280;28584;42.636;23.294;2022-07-29T10:36:04;167815.59;;;34.54;37.72
42945;BME280;28584;42.636;23.294;2022-07-29T10:39:05;167704.28;;;34.13;39.75
42945;BME280;28584;42.636;23.294;2022-07-29T10:44:22;167628.31;;;33.85;40.03
42945;BME280;28584;42.636;23.294;2022-07-29T10:46:49;167500.75;;;33.38;40.55
42945;BME280;28584;42.636;23.294;2022-07-29T10:49:23;167664.91;;;33.99;40.78
42945;BME280;28584;42.636;23.294;2022-07-29T10:57:15;168339.78;;;36.48;35.73
42945;BME280;28584;42.636;23.294;2022-07-29T10:59:42;168540.97;;;37.22;35.07
42945;BME280;28584;42.636;23.294;2022-07-29T11:05:17;168235.19;;;36.09;34.40
42945;BME280;28584;42.636;23.294;2022-07-29T11:10:37;168418.66;;;36.77;32.21
42945;BME280;28584;42.636;23.294;2022-07-29T11:13:03;167998.84;;;35.22;33.97
42945;BME280;28584;42.636;23.294;2022-07-29T11:15:28;167438.31;;;33.15;36.46
42945;BME280;28584;42.636;23.294;2022-07-29T11:23:36;166939.44;;;31.30;41.85
42945;BME280;28584;42.636;23.294;2022-07-29T11:31:50;166961.09;;;31.38;40.77
42945;BME280;28584;42.636;23.294;2022-07-29T11:34:25;166912.28;;;31.20;42.18
42945;BME280;28584;42.636;23.294;2022-07-29T11:40:08;166924.47;;;31.25;42.22
42945;BME280;28584;42.636;23.294;2022-07-29T11:45:21;166944.88;;;31.33;40.93
42945;BME280;28584;42.636;23.294;2022-07-29T11:47:49;167000.41;;;31.53;42.51
42945;BME280;28584;42.636;23.294;2022-07-29T11:50:25;167300.00;;;32.64;39.56
42945;BME280;28584;42.636;23.294;2022-07-29T11:52:52;167413.94;;;33.06;40.19
42945;BME280;28584;42.636;23.294;2022-07-29T11:55:22;167830.50;;;34.60;38.12
42945;BME280;28584;42.636;23.294;2022-07-29T11:57:56;167772.16;;;34.38;37.63
42945;BME280;28584;42.636;23.294;2022-07-29T12:00:49;168136.00;;;35.72;35.76
42945;BME280;28584;42.636;23.294;2022-07-29T12:03:26;168141.41;;;35.74;34.57
42945;BME280;28584;42.636;23.294;2022-07-29T12:05:52;168021.94;;;35.30;35.50
42945;BME280;28584;42.636;23.294;2022-07-29T12:08:20;168069.47;;;35.48;35.16
42945;BME280;28584;42.636;23.294;2022-07-29T12:10:48;168026.00;;;35.32;34.46
42945;BME280;28584;42.636;23.294;2022-07-29T12:13:16;167899.78;;;34.85;34.11
42945;BME280;28584;42.636;23.294;2022-07-29T12:15:50;167530.59;;;33.49;37.17
42945;BME280;28584;42.636;23.294;2022-07-29T12:18:18;167403.09;;;33.02;38.21
42945;BME280;28584;42.636;23.294;2022-07-29T12:20:44;167142.72;;;32.06;40.43
42945;BME280;28584;42.636;23.294;2022-07-29T12:23:10;166990.94;;;31.50;41.63
42945;BME280;28584;42.636;23.294;2022-07-29T12:25:41;167012.59;;;31.58;41.28
42945;BME280;28584;42.636;23.294;2022-07-29T12:28:12;167049.16;;;31.71;41.42
42945;BME280;28584;42.636;23.294;2022-07-29T12:30:46;167083.06;;;31.84;40.39
42945;BME280;28584;42.636;23.294;2022-07-29T12:33:21;167083.06;;;31.84;40.05
42945;BME280;28584;42.636;23.294;2022-07-29T12:35:49;167148.13;;;32.08;38.64
42945;BME280;28584;42.636;23.294;2022-07-29T12:38:16;167146.81;;;32.07;37.17
42945;BME280;28584;42.636;23.294;2022-07-29T12:40:42;167015.28;;;31.59;37.57
42945;BME280;28584;42.636;23.294;2022-07-29T12:43:15;166951.63;;;31.35;39.02
42945;BME280;28584;42.636;23.294;2022-07-29T12:45:44;166947.56;;;31.33;39.30
42945;BME280;28584;42.636;23.294;2022-07-29T12:48:11;166847.28;;;30.96;41.42
42945;BME280;28584;42.636;23.294;2022-07-29T12:50:55;166931.31;;;31.27;41.29
42945;BME280;28584;42.636;23.294;2022-07-29T12:53:20;166921.78;;;31.24;39.85
42945;BME280;28584;42.636;23.294;2022-07-29T12:55:51;166982.81;;;31.47;41.22
42945;BME280;28584;42.636;23.294;2022-07-29T12:58:30;166901.47;;;31.16;42.62
42945;BME280;28584;42.636;23.294;2022-07-29T13:01:05;166850.03;;;30.97;42.25
42945;BME280;28584;42.636;23.294;2022-07-29T13:03:52;166866.22;;;31.03;41.63
42945;BME280;28584;42.636;23.294;2022-07-29T13:06:42;166870.31;;;31.05;41.02
42945;BME280;28584;42.636;23.294;2022-07-29T13:11:44;166873.03;;;31.06;40.69
42945;BME280;28584;42.636;23.294;2022-07-29T13:14:11;166874.38;;;31.06;41.05
42945;BME280;28584;42.636;23.294;2022-07-29T13:17:05;166813.44;;;30.84;41.29
42945;BME280;28584;42.636;23.294;2022-07-29T13:19:36;166790.41;;;30.75;41.42
42945;BME280;28584;42.636;23.294;2022-07-29T13:22:02;166780.94;;;30.72;41.89
42945;BME280;28584;42.636;23.294;2022-07-29T13:27:24;166820.19;;;30.86;40.87
42945;BME280;28584;42.636;23.294;2022-07-29T13:29:50;166786.34;;;30.74;40.32
42945;BME280;28584;42.636;23.294;2022-07-29T13:32:18;166724.03;;;30.51;41.62
42945;BME280;28584;42.636;23.294;2022-07-29T13:34:44;166766.00;;;30.66;41.18